Big Bear Station Historical Data
Daily Summary for November 9, 2019 Units:  Both    English   Metric
Next Day »
Daily Weekly Monthly Yearly Custom
  High: Low: Average:
Temperature: 63.3 °F /  17.4 °C 27.1 °F /  -2.7 °C 40.5 °F /  4.7 °C
Dew Point: 30.2 °F /  -1 °C 14.4 °F /  -9.8 °C 21.2 °F /  -6 °C
Humidity: 90% 19% 53%
Wind Speed: 4.7mph /  7.6km/h - 0.5mph /  0.8km/h
Wind Gust: -999mph /  -1607.7km/h - -
Wind- - WSW
Pressure: 23.68 in /  801.8 hPa 23.59 in /  798.8 hPa -
Precipitation: 0 in /  0 mm    
Historical Graphs
 
 
Tabular Data for November 9, 2019
Time Temperature Dew Point Pressure Wind Wind Speed Wind Gust Humidity Rainfall Rate (Hourly)
00:13 31.5 °F /  -0.3 °C 24.5 °F /  -4.2 °C 23.68in /  801.8hPa Calm   -999mph /  -1607.7km/h 75% 0.00in /  0mm
00:28 30.9 °F /  -0.6 °C 24.2 °F /  -4.3 °C 23.68in /  801.8hPa Calm   -999mph /  -1607.7km/h 76% 0.00in /  0mm
00:43 31.1 °F /  -0.5 °C 24.4 °F /  -4.2 °C 23.67in /  801.5hPa Calm   -999mph /  -1607.7km/h 76% 0.00in /  0mm
00:59 30.9 °F /  -0.6 °C 24.2 °F /  -4.3 °C 23.67in /  801.5hPa Calm   -999mph /  -1607.7km/h 76% 0.00in /  0mm
01:14 30.4 °F /  -0.9 °C 23.7 °F /  -4.6 °C 23.66in /  801.1hPa Calm   -999mph /  -1607.7km/h 76% 0.00in /  0mm
01:29 30.6 °F /  -0.8 °C 23.9 °F /  -4.5 °C 23.66in /  801.1hPa SSE 1.7mph /  2.7km/h -999mph /  -1607.7km/h 76% 0.00in /  0mm
01:44 30.2 °F /  -1 °C 23.9 °F /  -4.5 °C 23.66in /  801.1hPa Calm   -999mph /  -1607.7km/h 77% 0.00in /  0mm
01:59 29.8 °F /  -1.2 °C 22.5 °F /  -5.3 °C 23.66in /  801.1hPa Calm   -999mph /  -1607.7km/h 74% 0.00in /  0mm
02:15 29.3 °F /  -1.5 °C 22 °F /  -5.6 °C 23.65in /  800.8hPa Calm   -999mph /  -1607.7km/h 74% 0.00in /  0mm
02:30 28.9 °F /  -1.7 °C 21.7 °F /  -5.7 °C 23.65in /  800.8hPa Calm   -999mph /  -1607.7km/h 74% 0.00in /  0mm
02:45 28.8 °F /  -1.8 °C 21.2 °F /  -6 °C 23.65in /  800.8hPa Calm   -999mph /  -1607.7km/h 73% 0.00in /  0mm
03:00 28.4 °F /  -2 °C 21.8 °F /  -5.7 °C 23.65in /  800.8hPa Calm   -999mph /  -1607.7km/h 76% 0.00in /  0mm
03:15 28.2 °F /  -2.1 °C 22.8 °F /  -5.1 °C 23.64in /  800.5hPa Calm   -999mph /  -1607.7km/h 80% 0.00in /  0mm
03:31 28.6 °F /  -1.9 °C 23.8 °F /  -4.6 °C 23.64in /  800.5hPa Calm   -999mph /  -1607.7km/h 82% 0.00in /  0mm
03:46 28.2 °F /  -2.1 °C 24 °F /  -4.4 °C 23.64in /  800.5hPa Calm   -999mph /  -1607.7km/h 84% 0.00in /  0mm
04:01 28.2 °F /  -2.1 °C 24 °F /  -4.4 °C 23.64in /  800.5hPa Calm   -999mph /  -1607.7km/h 84% 0.00in /  0mm
04:16 27.9 °F /  -2.3 °C 23.7 °F /  -4.6 °C 23.64in /  800.5hPa Calm   -999mph /  -1607.7km/h 84% 0.00in /  0mm
04:31 28.4 °F /  -2 °C 24.5 °F /  -4.2 °C 23.64in /  800.5hPa Calm   -999mph /  -1607.7km/h 85% 0.00in /  0mm
04:47 28 °F /  -2.2 °C 24.4 °F /  -4.2 °C 23.64in /  800.5hPa Calm   -999mph /  -1607.7km/h 86% 0.00in /  0mm
05:02 27.5 °F /  -2.5 °C 23.9 °F /  -4.5 °C 23.64in /  800.5hPa Calm   -999mph /  -1607.7km/h 86% 0.00in /  0mm
05:17 27.3 °F /  -2.6 °C 23.7 °F /  -4.6 °C 23.64in /  800.5hPa Calm   -999mph /  -1607.7km/h 86% 0.00in /  0mm
05:32 27.5 °F /  -2.5 °C 24.1 °F /  -4.4 °C 23.64in /  800.5hPa Calm   -999mph /  -1607.7km/h 87% 0.00in /  0mm
05:47 27.7 °F /  -2.4 °C 24.3 °F /  -4.3 °C 23.65in /  800.8hPa Calm   -999mph /  -1607.7km/h 87% 0.00in /  0mm
06:03 27.1 °F /  -2.7 °C 24 °F /  -4.4 °C 23.65in /  800.8hPa Calm   -999mph /  -1607.7km/h 88% 0.00in /  0mm
06:18 27.7 °F /  -2.4 °C 24.6 °F /  -4.1 °C 23.66in /  801.1hPa Calm   -999mph /  -1607.7km/h 88% 0.00in /  0mm
06:33 27.1 °F /  -2.7 °C 24.3 °F /  -4.3 °C 23.66in /  801.1hPa Calm   -999mph /  -1607.7km/h 89% 0.00in /  0mm
06:48 27.9 °F /  -2.3 °C 25.1 °F /  -3.8 °C 23.66in /  801.1hPa Calm   -999mph /  -1607.7km/h 89% 0.00in /  0mm
07:03 27.7 °F /  -2.4 °C 25.2 °F /  -3.8 °C 23.66in /  801.1hPa Calm   -999mph /  -1607.7km/h 90% 0.00in /  0mm
07:19 27.7 °F /  -2.4 °C 25.2 °F /  -3.8 °C 23.66in /  801.1hPa Calm   -999mph /  -1607.7km/h 90% 0.00in /  0mm
07:34 28.4 °F /  -2 °C 25.6 °F /  -3.6 °C 23.66in /  801.1hPa Calm   -999mph /  -1607.7km/h 89% 0.00in /  0mm
07:49 29.3 °F /  -1.5 °C 26.2 °F /  -3.2 °C 23.66in /  801.1hPa Calm   -999mph /  -1607.7km/h 88% 0.00in /  0mm
08:04 30.4 °F /  -0.9 °C 26.4 °F /  -3.1 °C 23.66in /  801.1hPa Calm   -999mph /  -1607.7km/h 85% 0.00in /  0mm
08:20 30.7 °F /  -0.7 °C 27 °F /  -2.8 °C 23.66in /  801.1hPa Calm   -999mph /  -1607.7km/h 86% 0.00in /  0mm
08:35 33.6 °F /  0.9 °C 29.3 °F /  -1.5 °C 23.66in /  801.1hPa Calm   -999mph /  -1607.7km/h 84% 0.00in /  0mm
08:50 34.5 °F /  1.4 °C 30.2 °F /  -1 °C 23.66in /  801.1hPa Calm   -999mph /  -1607.7km/h 84% 0.00in /  0mm
09:05 36.1 °F /  2.3 °C 29.6 °F /  -1.3 °C 23.66in /  801.1hPa Calm   -999mph /  -1607.7km/h 77% 0.00in /  0mm
09:20 40.3 °F /  4.6 °C 27.1 °F /  -2.7 °C 23.66in /  801.1hPa NW 1.1mph /  1.8km/h -999mph /  -1607.7km/h 59% 0.00in /  0mm
09:36 43 °F /  6.1 °C 27 °F /  -2.8 °C 23.66in /  801.1hPa Calm   -999mph /  -1607.7km/h 53% 0.00in /  0mm
09:51 50.9 °F /  10.5 °C 27.4 °F /  -2.6 °C 23.66in /  801.1hPa NW 2.2mph /  3.5km/h -999mph /  -1607.7km/h 40% 0.00in /  0mm
10:06 53.6 °F /  12 °C 21.3 °F /  -5.9 °C 23.65in /  800.8hPa Calm   -999mph /  -1607.7km/h 28% 0.00in /  0mm
10:21 55.8 °F /  13.2 °C 19.5 °F /  -6.9 °C 23.65in /  800.8hPa Calm   -999mph /  -1607.7km/h 24% 0.00in /  0mm
10:36 57 °F /  13.9 °C 20.5 °F /  -6.4 °C 23.65in /  800.8hPa NW 4.2mph /  6.8km/h -999mph /  -1607.7km/h 24% 0.00in /  0mm
10:52 58.1 °F /  14.5 °C 19.4 °F /  -7 °C 23.64in /  800.5hPa NNE 3.7mph /  6km/h -999mph /  -1607.7km/h 22% 0.00in /  0mm
11:07 59.2 °F /  15.1 °C 18.1 °F /  -7.7 °C 23.64in /  800.5hPa NNE 2.2mph /  3.5km/h -999mph /  -1607.7km/h 20% 0.00in /  0mm
11:22 59 °F /  15 °C 19.1 °F /  -7.2 °C 23.63in /  800.1hPa Calm   -999mph /  -1607.7km/h 21% 0.00in /  0mm
11:37 60.4 °F /  15.8 °C 17.9 °F /  -7.8 °C 23.63in /  800.1hPa Calm   -999mph /  -1607.7km/h 19% 0.00in /  0mm
11:53 60.8 °F /  16 °C 20.6 °F /  -6.3 °C 23.62in /  799.8hPa Calm   -999mph /  -1607.7km/h 21% 0.00in /  0mm
12:08 61.3 °F /  16.3 °C 18.7 °F /  -7.4 °C 23.62in /  799.8hPa North 2.7mph /  4.3km/h -999mph /  -1607.7km/h 19% 0.00in /  0mm
12:23 63.3 °F /  17.4 °C 20.3 °F /  -6.5 °C 23.61in /  799.4hPa SSW 1.7mph /  2.7km/h -999mph /  -1607.7km/h 19% 0.00in /  0mm
12:38 63.1 °F /  17.3 °C 20.1 °F /  -6.6 °C 23.61in /  799.4hPa NNW 4.7mph /  7.6km/h -999mph /  -1607.7km/h 19% 0.00in /  0mm
12:53 62.2 °F /  16.8 °C 19.4 °F /  -7 °C 23.60in /  799.1hPa Calm   -999mph /  -1607.7km/h 19% 0.00in /  0mm
13:09 61.2 °F /  16.2 °C 19.8 °F /  -6.8 °C 23.60in /  799.1hPa NNE 2.7mph /  4.3km/h -999mph /  -1607.7km/h 20% 0.00in /  0mm
13:24 60.1 °F /  15.6 °C 20 °F /  -6.7 °C 23.60in /  799.1hPa WNW 1.7mph /  2.7km/h -999mph /  -1607.7km/h 21% 0.00in /  0mm
13:39 60.1 °F /  15.6 °C 18.9 °F /  -7.3 °C 23.60in /  799.1hPa Calm   -999mph /  -1607.7km/h 20% 0.00in /  0mm
13:54 59.5 °F /  15.3 °C 22.7 °F /  -5.2 °C 23.59in /  798.8hPa NNW 4.2mph /  6.8km/h -999mph /  -1607.7km/h 24% 0.00in /  0mm
14:09 59 °F /  15 °C 23.2 °F /  -4.9 °C 23.59in /  798.8hPa Calm   -999mph /  -1607.7km/h 25% 0.00in /  0mm
14:25 58.5 °F /  14.7 °C 19.8 °F /  -6.8 °C 23.59in /  798.8hPa NNW 4.7mph /  7.6km/h -999mph /  -1607.7km/h 22% 0.00in /  0mm
14:40 57.7 °F /  14.3 °C 21.1 °F /  -6.1 °C 23.60in /  799.1hPa NW 1.7mph /  2.7km/h -999mph /  -1607.7km/h 24% 0.00in /  0mm
14:55 57.6 °F /  14.2 °C 19 °F /  -7.2 °C 23.59in /  798.8hPa NW 3.2mph /  5.1km/h -999mph /  -1607.7km/h 22% 0.00in /  0mm
15:10 56.7 °F /  13.7 °C 20.3 °F /  -6.5 °C 23.59in /  798.8hPa SW 2.2mph /  3.5km/h -999mph /  -1607.7km/h 24% 0.00in /  0mm
15:26 55.9 °F /  13.3 °C 21.5 °F /  -5.8 °C 23.59in /  798.8hPa Calm   -999mph /  -1607.7km/h 26% 0.00in /  0mm
15:41 55.2 °F /  12.9 °C 20 °F /  -6.7 °C 23.59in /  798.8hPa NNW 2.2mph /  3.5km/h -999mph /  -1607.7km/h 25% 0.00in /  0mm
15:56 54 °F /  12.2 °C 23.2 °F /  -4.9 °C 23.59in /  798.8hPa Calm   -999mph /  -1607.7km/h 30% 0.00in /  0mm
16:11 52.7 °F /  11.5 °C 21.3 °F /  -5.9 °C 23.59in /  798.8hPa Calm   -999mph /  -1607.7km/h 29% 0.00in /  0mm
16:27 51.4 °F /  10.8 °C 21 °F /  -6.1 °C 23.59in /  798.8hPa Calm   -999mph /  -1607.7km/h 30% 0.00in /  0mm
16:42 50.2 °F /  10.1 °C 19.9 °F /  -6.7 °C 23.59in /  798.8hPa Calm   -999mph /  -1607.7km/h 30% 0.00in /  0mm
16:57 49.3 °F /  9.6 °C 19.1 °F /  -7.2 °C 23.59in /  798.8hPa Calm   -999mph /  -1607.7km/h 30% 0.00in /  0mm
17:12 48 °F /  8.9 °C 18.8 °F /  -7.3 °C 23.59in /  798.8hPa Calm   -999mph /  -1607.7km/h 31% 0.00in /  0mm
17:27 46.8 °F /  8.2 °C 17.7 °F /  -7.9 °C 23.59in /  798.8hPa Calm   -999mph /  -1607.7km/h 31% 0.00in /  0mm
17:43 45.3 °F /  7.4 °C 17.1 °F /  -8.3 °C 23.59in /  798.8hPa Calm   -999mph /  -1607.7km/h 32% 0.00in /  0mm
17:58 43.9 °F /  6.6 °C 16.6 °F /  -8.6 °C 23.60in /  799.1hPa Calm   -999mph /  -1607.7km/h 33% 0.00in /  0mm
18:13 42.8 °F /  6 °C 15.7 °F /  -9.1 °C 23.60in /  799.1hPa Calm   -999mph /  -1607.7km/h 33% 0.00in /  0mm
18:28 41.9 °F /  5.5 °C 16.2 °F /  -8.8 °C 23.60in /  799.1hPa Calm   -999mph /  -1607.7km/h 35% 0.00in /  0mm
18:43 41.2 °F /  5.1 °C 16.9 °F /  -8.4 °C 23.60in /  799.1hPa Calm   -999mph /  -1607.7km/h 37% 0.00in /  0mm
18:59 40.3 °F /  4.6 °C 16.1 °F /  -8.8 °C 23.61in /  799.4hPa Calm   -999mph /  -1607.7km/h 37% 0.00in /  0mm
19:14 39.4 °F /  4.1 °C 14.6 °F /  -9.7 °C 23.61in /  799.4hPa Calm   -999mph /  -1607.7km/h 36% 0.00in /  0mm
19:29 38.7 °F /  3.7 °C 14.6 °F /  -9.7 °C 23.61in /  799.4hPa Calm   -999mph /  -1607.7km/h 37% 0.00in /  0mm
19:44 37.8 °F /  3.2 °C 15.6 °F /  -9.1 °C 23.61in /  799.4hPa Calm   -999mph /  -1607.7km/h 40% 0.00in /  0mm
19:59 37 °F /  2.8 °C 15.5 °F /  -9.2 °C 23.61in /  799.4hPa Calm   -999mph /  -1607.7km/h 41% 0.00in /  0mm
20:15 36.5 °F /  2.5 °C 15.6 °F /  -9.1 °C 23.61in /  799.4hPa Calm   -999mph /  -1607.7km/h 42% 0.00in /  0mm
20:30 36.1 °F /  2.3 °C 17.3 °F /  -8.2 °C 23.61in /  799.4hPa Calm   -999mph /  -1607.7km/h 46% 0.00in /  0mm
20:45 35.2 °F /  1.8 °C 15.4 °F /  -9.2 °C 23.61in /  799.4hPa Calm   -999mph /  -1607.7km/h 44% 0.00in /  0mm
21:00 34.9 °F /  1.6 °C 16.2 °F /  -8.8 °C 23.61in /  799.4hPa Calm   -999mph /  -1607.7km/h 46% 0.00in /  0mm
21:16 34 °F /  1.1 °C 14.4 °F /  -9.8 °C 23.61in /  799.4hPa Calm   -999mph /  -1607.7km/h 44% 0.00in /  0mm
21:31 34 °F /  1.1 °C 16.4 °F /  -8.7 °C 23.62in /  799.8hPa Calm   -999mph /  -1607.7km/h 48% 0.00in /  0mm
21:46 33.4 °F /  0.8 °C 19 °F /  -7.2 °C 23.62in /  799.8hPa Calm   -999mph /  -1607.7km/h 55% 0.00in /  0mm
22:01 32.9 °F /  0.5 °C 18.1 °F /  -7.7 °C 23.61in /  799.4hPa Calm   -999mph /  -1607.7km/h 54% 0.00in /  0mm
22:16 32.9 °F /  0.5 °C 18.5 °F /  -7.5 °C 23.61in /  799.4hPa Calm   -999mph /  -1607.7km/h 55% 0.00in /  0mm
22:32 32.2 °F /  0.1 °C 16.5 °F /  -8.6 °C 23.61in /  799.4hPa Calm   -999mph /  -1607.7km/h 52% 0.00in /  0mm
22:47 32 °F /  0 °C 17.2 °F /  -8.2 °C 23.61in /  799.4hPa Calm   -999mph /  -1607.7km/h 54% 0.00in /  0mm
23:02 31.5 °F /  -0.3 °C 19.6 °F /  -6.9 °C 23.61in /  799.4hPa Calm   -999mph /  -1607.7km/h 61% 0.00in /  0mm
23:17 31.5 °F /  -0.3 °C 20.3 °F /  -6.5 °C 23.61in /  799.4hPa Calm   -999mph /  -1607.7km/h 63% 0.00in /  0mm
23:32 31.1 °F /  -0.5 °C 20.3 °F /  -6.5 °C 23.61in /  799.4hPa Calm   -999mph /  -1607.7km/h 64% 0.00in /  0mm
23:48 31.3 °F /  -0.4 °C 20.5 °F /  -6.4 °C 23.61in /  799.4hPa Calm   -999mph /  -1607.7km/h 64% 0.00in /  0mm
Big Bear CA Weather